• Join FlightAware (Why Join?)
  • Login
  • US Flag 
07:34AM EDT


 

Airport Tracker/Info


-or-


 

Live Flight TrackerFlight Track Log ✈ TAM3030 ✈ 10-May-2013 ✈ SBRJ / SDU - SBBR / BSB

Flight Track Log - Related Links

Times and Time Zones

All times are in EDT time to prevent confusion due to time zone crossing. See the TAM3030 flight status page for this flight to view local times or setup timezone preferences in your user account.

Time Position Orientation Groundspeed Altitude Reporting Facility
EDT Latitude Longitude Course Direction KTS MPH feet Rate Location/Type
07:54PM -21.1193 -44.4192 327° Northwest  Level Estimated
07:55PM -21.0337 -44.4782 327° Northwest  Level Estimated
07:56PM -20.9482 -44.5372 327° Northwest  Level Estimated
07:57PM -20.8626 -44.5961 327° Northwest  Level Estimated
07:58PM -20.7770 -44.6549 327° Northwest  Level Estimated
07:59PM -20.6914 -44.7136 327° Northwest  Level Estimated
08:00PM -20.6058 -44.7724 327° Northwest  Level Estimated
08:01PM -20.5201 -44.8310 327° Northwest  Level Estimated
08:02PM -20.4345 -44.8895 327° Northwest  Level Estimated
08:03PM -20.3488 -44.9481 327° Northwest  Level Estimated
08:04PM -20.2631 -45.0065 327° Northwest  Level Estimated
08:05PM -20.1773 -45.0649 327° Northwest  Level Estimated
08:06PM -20.0916 -45.1232 327° Northwest  Level Estimated
08:07PM -20.0058 -45.1814 327° Northwest  Level Estimated
08:08PM -19.9200 -45.2396 327° Northwest  Level Estimated
08:09PM -19.8342 -45.2977 327° Northwest  Level Estimated
08:10PM -19.7484 -45.3558 328° Northwest  Level Estimated
08:11PM -19.6626 -45.4138 328° Northwest  Level Estimated
08:12PM -19.5767 -45.4717 328° Northwest  Level Estimated
08:13PM -19.4908 -45.5296 328° Northwest  Level Estimated
08:14PM -19.4049 -45.5874 328° Northwest  Level Estimated
08:15PM -19.3190 -45.6451 328° Northwest  Level Estimated
08:16PM -19.2331 -45.7028 328° Northwest  Level Estimated
08:17PM -19.1471 -45.7604 328° Northwest  Level Estimated
08:18PM -19.0612 -45.8180 328° Northwest  Level Estimated
08:19PM -18.9752 -45.8755 328° Northwest  Level Estimated
08:20PM -18.8892 -45.9330 328° Northwest  Level Estimated
08:21PM -18.8032 -45.9904 328° Northwest  Level Estimated
08:22PM -18.7171 -46.0477 328° Northwest  Level Estimated
08:23PM -18.6311 -46.1050 328° Northwest  Level Estimated
08:24PM -18.5450 -46.1622 328° Northwest  Level Estimated
08:25PM -18.4589 -46.2193 328° Northwest  Level Estimated
08:26PM -18.3728 -46.2764 328° Northwest  Level Estimated
08:27PM -18.2867 -46.3335 328° Northwest  Level Estimated
08:28PM -18.2005 -46.3904 328° Northwest  Level Estimated
08:29PM -18.1144 -46.4474 328° Northwest  Level Estimated
08:30PM -18.0282 -46.5042 328° Northwest  Level Estimated
08:31PM -17.9420 -46.5611 328° Northwest  Level Estimated
08:32PM -17.8558 -46.6178 328° Northwest  Level Estimated
08:33PM -17.7696 -46.6745 328° Northwest  Level Estimated
08:34PM -17.6833 -46.7312 328° Northwest  Level Estimated
08:35PM -17.5970 -46.7878 328° Northwest  Level Estimated
08:36PM -17.5108 -46.8443 328° Northwest  Level Estimated
08:37PM -17.4245 -46.9008 328° Northwest  Level Estimated
08:38PM -17.3382 -46.9572 328° Northwest  Level Estimated
08:39PM -17.2519 -47.0136 328° Northwest  Level Estimated
08:40PM -17.1655 -47.0700 328° Northwest  Level Estimated
08:41PM -17.0792 -47.1262 328° Northwest  Level Estimated
08:42PM -16.9928 -47.1825 328° Northwest  Level Estimated
08:43PM -16.9064 -47.2386 328° Northwest  Level Estimated
08:44PM -16.8200 -47.2948 328° Northwest  Level Estimated
08:45PM -16.7336 -47.3508 328° Northwest  Level Estimated
08:46PM -16.6472 -47.4068 328° Northwest  Level Estimated
08:47PM -16.5607 -47.4628 328° Northwest  Level Estimated
08:48PM -16.4743 -47.5187 328° Northwest  Level Estimated
08:49PM -16.3878 -47.5746 328° Northwest  Level Estimated
08:50PM -16.3013 -47.6304 328° Northwest  Level Estimated
08:51PM -16.2148 -47.6862 328° Northwest  Level Estimated
08:52PM -16.1283 -47.7419 328° Northwest  Level Estimated
08:53PM -16.0417 -47.7976 328° Northwest  Level Estimated
08:54PM -15.9552 -47.8532 328° Northwest  Level Estimated
08:55PM -15.8686 -47.9088 328° Northwest  Level Estimated
08:56PM -15.8626 -47.9127 328° Northwest  Level Estimated
08:57PM -15.8626 -47.9127 128° Southeast  Level Estimated
08:58PM -15.8626 -47.9127 128° Southeast  Level Estimated
08:59PM -15.8626 -47.9127 128° Southeast  Level Estimated
09:00PM -15.8626 -47.9127 128° Southeast  Level Estimated
09:01PM -15.8626 -47.9127 128° Southeast  Level Estimated
09:02PM -15.8626 -47.9127 128° Southeast  Level Estimated
09:03PM -15.8626 -47.9127 128° Southeast  Level Estimated
09:04PM -15.8626 -47.9127 128° Southeast  Level Estimated
09:05PM -15.8626 -47.9127 128° Southeast  Level Estimated
09:06PM -15.8626 -47.9127 128° Southeast  Level Estimated
09:07PM -15.8626 -47.9127 128° Southeast  Level Estimated
09:08PM -15.8626 -47.9127 128° Southeast  Level Estimated
09:09PM -15.8626 -47.9127 128° Southeast  Level Estimated
09:10PM -15.8626 -47.9127 128° Southeast  Level Estimated
09:11PM -15.8626 -47.9127 128° Southeast  Level Estimated